Time;durP1;ratioP1;P1;durP2;ratioP2;P2;SDS_P1;SDS_P2;PMS_P1;PMS_P2;Temp;Humidity;BMP_temperature;BMP_pressure;BME280_temperature;BME280_humidity;BME280_pressure;Samples;Min_cycle;Max_cycle;Signal;HPM_P1;HPM_P2
2022/06/24 00:00:48;;;;;;;;;;;;;;;;;;5074606;28;1096;-78
2022/06/24 00:03:15;;;;;;;;;;;;;;;;;;5056954;28;1429;-79
2022/06/24 00:05:42;;;;;;;;;;;;;;;;;;5074970;28;778;-79
2022/06/24 00:08:08;;;;;;;;;;;;;;;;;;5074033;28;1020;-79
2022/06/24 00:10:35;;;;;;;;;;;;;;;;;;5056261;28;1176;-79
2022/06/24 00:13:03;;;;;;;;;;;;;;;;;;5073925;28;1397;-79
2022/06/24 00:15:30;;;;;;;;;;;;;;;;;;5074290;28;802;-77
2022/06/24 00:17:56;;;;;;;;;;;;;;;;;;5073239;28;794;-79
2022/06/24 00:20:23;;;;;;;;;;;;;;;;;;5073967;28;1076;-79
2022/06/24 00:22:49;;;;;;;;;;;;;;;;;;5073562;28;1380;-79
2022/06/24 00:25:16;;;;;;;;;;;;;;;;;;5074187;28;913;-79
2022/06/24 00:27:43;;;;;;;;;;;;;;;;;;5072565;28;1118;-79
2022/06/24 00:30:11;;;;;;;;;;;;;;;;;;5055677;28;1322;-79
2022/06/24 00:32:38;;;;;;;;;;;;;;;;;;5073059;28;1977;-79
2022/06/24 00:35:04;;;;;;;;;;;;;;;;;;5055701;28;1176;-78
2022/06/24 00:37:31;;;;;;;;;;;;;;;;;;5073463;28;1071;-78
2022/06/24 00:39:58;;;;;;;;;;;;;;;;;;5082824;28;1067;-78
2022/06/24 00:42:25;;;;;;;;;;;;;;;;;;5083829;28;1337;-78
2022/06/24 00:44:52;;;;;;;;;;;;;;;;;;5079145;28;1020;-78
2022/06/24 00:47:19;;;;;;;;;;;;;;;;;;5055908;28;1733;-78
2022/06/24 00:49:46;;;;;;;;;;;;;;;;;;5079883;28;1082;-78
2022/06/24 00:52:14;;;;;;;;;;;;;;;;;;5079843;28;1914;-78
2022/06/24 00:54:42;;;;;;;;;;;;;;;;;;5054100;28;1152;-78
2022/06/24 00:57:08;;;;;;;;;;;;;;;;;;5070893;28;1079;-77
2022/06/24 00:59:35;;;;;;;;;;;;;;;;;;5071452;28;1075;-78
2022/06/24 01:02:04;;;;;;;;;;;;;;;;;;5071247;28;1063;-78
2022/06/24 01:04:32;;;;;;;;;;;;;;;;;;5053445;28;1310;-77
2022/06/24 01:06:58;;;;;;;;;;;;;;;;;;5071210;28;1071;-78
2022/06/24 01:09:25;;;;;;;;;;;;;;;;;;5053302;28;1196;-78
2022/06/24 01:11:51;;;;;;;;;;;;;;;;;;5070619;28;1971;-77
2022/06/24 01:14:17;;;;;;;;;;;;;;;;;;5071255;28;1261;-77
2022/06/24 01:16:43;;;;;;;;;;;;;;;;;;5069029;28;1214;-77
2022/06/24 01:19:10;;;;;;;;;;;;;;;;;;5071075;28;1100;-77
2022/06/24 01:21:38;;;;;;;;;;;;;;;;;;5071229;28;827;-78
2022/06/24 01:24:05;;;;;;;;;;;;;;;;;;5070515;28;1375;-77
2022/06/24 01:26:31;;;;;;;;;;;;;;;;;;5070227;28;1118;-78
2022/06/24 01:28:58;;;;;;;;;;;;;;;;;;5053325;28;1335;-77
2022/06/24 01:31:24;;;;;;;;;;;;;;;;;;5070665;28;1981;-78
2022/06/24 01:33:50;;;;;;;;;;;;;;;;;;5070362;28;1514;-77
2022/06/24 01:36:16;;;;;;;;;;;;;;;;;;5070088;28;759;-78
2022/06/24 01:38:44;;;;;;;;;;;;;;;;;;5052245;28;1112;-78
2022/06/24 01:41:10;;;;;;;;;;;;;;;;;;5070465;28;813;-78
2022/06/24 01:43:36;;;;;;;;;;;;;;;;;;5052320;28;1420;-78
2022/06/24 01:46:02;;;;;;;;;;;;;;;;;;5070460;28;1213;-77
2022/06/24 01:48:29;;;;;;;;;;;;;;;;;;5052055;28;1163;-77
2022/06/24 01:50:55;;;;;;;;;;;;;;;;;;5055138;28;1209;-78
2022/06/24 01:53:21;;;;;;;;;;;;;;;;;;5055470;28;1910;-78
2022/06/24 01:55:49;;;;;;;;;;;;;;;;;;5073417;28;860;-79
2022/06/24 01:58:15;;;;;;;;;;;;;;;;;;5054114;28;1262;-78
2022/06/24 02:00:41;;;;;;;;;;;;;;;;;;5053084;28;1297;-78
2022/06/24 02:03:08;;;;;;;;;;;;;;;;;;5054094;28;1329;-78
2022/06/24 02:05:34;;;;;;;;;;;;;;;;;;5053304;28;1265;-78
2022/06/24 02:08:00;;;;;;;;;;;;;;;;;;5052603;28;1136;-78
2022/06/24 02:13:27;;;;;;;;;;;;;;;;;;5053884;28;1930;-78
2022/06/24 02:15:53;;;;;;;;;;;;;;;;;;5071273;28;1059;-78
2022/06/24 02:18:19;;;;;;;;;;;;;;;;;;5070495;28;1064;-78
2022/06/24 02:20:45;;;;;;;;;;;;;;;;;;5071570;28;902;-78
2022/06/24 02:23:12;;;;;;;;;;;;;;;;;;5062308;28;1712;-78
2022/06/24 02:25:38;;;;;;;;;;;;;;;;;;5050350;28;1563;-78
2022/06/24 02:28:04;;;;;;;;;;;;;;;;;;5061490;28;1310;-78
2022/06/24 02:30:32;;;;;;;;;;;;;;;;;;5050569;28;1114;-78
2022/06/24 02:32:58;;;;;;;;;;;;;;;;;;5050044;28;1922;-78
2022/06/24 02:35:24;;;;;;;;;;;;;;;;;;5050169;28;1096;-79
2022/06/24 02:37:51;;;;;;;;;;;;;;;;;;5032161;28;1124;-78
2022/06/24 02:43:01;;;;;;;;;;;;;;;;;;5032940;28;1461;-78
2022/06/24 02:45:27;;;;;;;;;;;;;;;;;;5050676;28;987;-77
2022/06/24 02:47:55;;;;;;;;;;;;;;;;;;5049837;28;869;-78
2022/06/24 02:50:21;;;;;;;;;;;;;;;;;;5051855;28;991;-77
2022/06/24 02:52:47;;;;;;;;;;;;;;;;;;5053796;28;1910;-79
2022/06/24 02:55:13;;;;;;;;;;;;;;;;;;5054463;28;1110;-79
2022/06/24 02:57:39;;;;;;;;;;;;;;;;;;5054192;28;775;-79
2022/06/24 03:00:06;;;;;;;;;;;;;;;;;;5055660;28;993;-79
2022/06/24 03:02:32;;;;;;;;;;;;;;;;;;5055193;28;1328;-78
2022/06/24 03:05:00;;;;;;;;;;;;;;;;;;5055405;28;775;-79
2022/06/24 03:07:26;;;;;;;;;;;;;;;;;;5053438;28;996;-78
2022/06/24 03:09:52;;;;;;;;;;;;;;;;;;5035120;28;1100;-78
2022/06/24 03:12:18;;;;;;;;;;;;;;;;;;5051912;28;1983;-77
2022/06/24 03:14:45;;;;;;;;;;;;;;;;;;5053450;28;989;-78
2022/06/24 03:17:11;;;;;;;;;;;;;;;;;;5055375;28;1127;-78
2022/06/24 03:19:37;;;;;;;;;;;;;;;;;;5073274;28;768;-77
2022/06/24 03:22:05;;;;;;;;;;;;;;;;;;5055347;28;1255;-78
2022/06/24 03:24:31;;;;;;;;;;;;;;;;;;5073197;28;1298;-77
2022/06/24 03:26:57;;;;;;;;;;;;;;;;;;5071823;28;1443;-77
2022/06/24 03:29:23;;;;;;;;;;;;;;;;;;5073034;28;937;-75
2022/06/24 03:31:50;;;;;;;;;;;;;;;;;;5073039;28;1914;-78
2022/06/24 03:34:16;;;;;;;;;;;;;;;;;;5054950;28;1379;-77
2022/06/24 03:36:42;;;;;;;;;;;;;;;;;;5072429;28;1048;-76
2022/06/24 03:39:10;;;;;;;;;;;;;;;;;;5054764;28;1151;-77
2022/06/24 03:44:14;;;;;;;;;;;;;;;;;;5025069;28;1949;-73
2022/06/24 03:46:40;;;;;;;;;;;;;;;;;;5028078;28;1316;-73
2022/06/24 03:49:06;;;;;;;;;;;;;;;;;;5024780;28;1178;-73
2022/06/24 03:51:32;;;;;;;;;;;;;;;;;;5032936;28;1060;-73
2022/06/24 03:53:58;;;;;;;;;;;;;;;;;;5051865;28;1979;-73
2022/06/24 03:56:26;;;;;;;;;;;;;;;;;;5045656;28;1395;-74
2022/06/24 03:58:52;;;;;;;;;;;;;;;;;;5048329;28;1386;-73
2022/06/24 04:01:18;;;;;;;;;;;;;;;;;;5048902;28;1743;-74
2022/06/24 04:03:44;;;;;;;;;;;;;;;;;;5041127;28;1351;-74
2022/06/24 04:06:11;;;;;;;;;;;;;;;;;;5043324;28;1166;-73
2022/06/24 04:08:37;;;;;;;;;;;;;;;;;;5051292;28;1276;-74
2022/06/24 04:11:08;;;;;;;;;;;;;;;;;;5050511;28;1170;-73
2022/06/24 04:13:36;;;;;;;;;;;;;;;;;;5029630;28;1916;-73
2022/06/24 04:16:02;;;;;;;;;;;;;;;;;;5054705;28;1399;-73
2022/06/24 04:18:28;;;;;;;;;;;;;;;;;;5029548;28;1134;-73
2022/06/24 04:20:54;;;;;;;;;;;;;;;;;;5051356;28;1223;-73
2022/06/24 04:23:21;;;;;;;;;;;;;;;;;;5034074;28;1393;-71
2022/06/24 04:25:47;;;;;;;;;;;;;;;;;;5052291;28;1122;-72
2022/06/24 04:28:13;;;;;;;;;;;;;;;;;;5051464;28;841;-72
2022/06/24 04:30:41;;;;;;;;;;;;;;;;;;5052148;28;1106;-73
2022/06/24 04:33:07;;;;;;;;;;;;;;;;;;5051193;28;1979;-72
2022/06/24 04:35:33;;;;;;;;;;;;;;;;;;5052336;28;929;-71
2022/06/24 04:37:59;;;;;;;;;;;;;;;;;;5050856;28;1110;-72
2022/06/24 04:40:26;;;;;;;;;;;;;;;;;;5034133;28;1543;-72
2022/06/24 04:42:52;;;;;;;;;;;;;;;;;;5051767;28;1369;-71
2022/06/24 04:45:19;;;;;;;;;;;;;;;;;;5033294;28;1316;-72
2022/06/24 04:47:46;;;;;;;;;;;;;;;;;;5050578;28;1322;-72
2022/06/24 04:50:12;;;;;;;;;;;;;;;;;;5050828;28;1224;-72
2022/06/24 04:52:39;;;;;;;;;;;;;;;;;;5051503;28;1918;-72
2022/06/24 04:55:06;;;;;;;;;;;;;;;;;;5051469;28;712;-72
2022/06/24 04:57:32;;;;;;;;;;;;;;;;;;5032822;28;1168;-72
2022/06/24 04:59:58;;;;;;;;;;;;;;;;;;5033570;28;1251;-73
2022/06/24 05:02:24;;;;;;;;;;;;;;;;;;5051540;28;1387;-73
2022/06/24 05:04:52;;;;;;;;;;;;;;;;;;5033721;28;1104;-72
2022/06/24 05:07:18;;;;;;;;;;;;;;;;;;5032864;28;1310;-73
2022/06/24 05:09:46;;;;;;;;;;;;;;;;;;5051249;28;1076;-73
2022/06/24 05:12:12;;;;;;;;;;;;;;;;;;5032952;28;1973;-73
2022/06/24 05:14:38;;;;;;;;;;;;;;;;;;5032843;28;1175;-74
2022/06/24 05:17:04;;;;;;;;;;;;;;;;;;5050752;28;759;-74
2022/06/24 05:19:31;;;;;;;;;;;;;;;;;;5051512;28;1056;-73
2022/06/24 05:21:58;;;;;;;;;;;;;;;;;;5049489;28;1448;-73
2022/06/24 05:24:24;;;;;;;;;;;;;;;;;;5032601;28;1510;-74
2022/06/24 05:26:51;;;;;;;;;;;;;;;;;;5045818;28;1843;-72
2022/06/24 05:29:17;;;;;;;;;;;;;;;;;;5043420;28;1380;-73
2022/06/24 05:31:44;;;;;;;;;;;;;;;;;;5034512;28;1408;-71
2022/06/24 05:34:11;;;;;;;;;;;;;;;;;;5025829;28;1918;-73
2022/06/24 05:36:37;;;;;;;;;;;;;;;;;;5045148;28;1485;-72
2022/06/24 05:39:05;;;;;;;;;;;;;;;;;;5042032;28;1158;-72
2022/06/24 05:41:31;;;;;;;;;;;;;;;;;;5043984;28;1304;-72
2022/06/24 05:43:58;;;;;;;;;;;;;;;;;;5033167;28;1481;-72
2022/06/24 05:46:24;;;;;;;;;;;;;;;;;;5046970;28;1762;-72
2022/06/24 05:48:50;;;;;;;;;;;;;;;;;;5032225;28;1372;-73
2022/06/24 05:51:17;;;;;;;;;;;;;;;;;;5048872;28;1458;-73
2022/06/24 05:56:29;;;;;;;;;;;;;;;;;;5043127;28;1025;-73
2022/06/24 05:58:55;;;;;;;;;;;;;;;;;;5047926;28;1060;-73
2022/06/24 06:01:21;;;;;;;;;;;;;;;;;;5032181;28;1128;-74
2022/06/24 06:03:48;;;;;;;;;;;;;;;;;;5035174;28;1428;-72
2022/06/24 06:06:14;;;;;;;;;;;;;;;;;;5011733;28;1467;-73
2022/06/24 06:08:40;;;;;;;;;;;;;;;;;;5028859;28;1152;-73
2022/06/24 06:11:10;;;;;;;;;;;;;;;;;;5043617;28;1443;-73
2022/06/24 06:13:38;;;;;;;;;;;;;;;;;;5023327;28;1915;-73
2022/06/24 06:16:04;;;;;;;;;;;;;;;;;;5047883;28;1451;-73
2022/06/24 06:18:31;;;;;;;;;;;;;;;;;;5042761;28;1371;-73
2022/06/24 06:20:59;;;;;;;;;;;;;;;;;;5030091;28;939;-73
2022/06/24 06:23:28;;;;;;;;;;;;;;;;;;5037630;28;1409;-72
2022/06/24 06:25:54;;;;;;;;;;;;;;;;;;5027287;28;1174;-74
2022/06/24 06:28:20;;;;;;;;;;;;;;;;;;5034393;28;1543;-73
2022/06/24 06:30:48;;;;;;;;;;;;;;;;;;5053874;28;948;-73
2022/06/24 06:33:14;;;;;;;;;;;;;;;;;;5052520;28;1985;-73
2022/06/24 06:35:40;;;;;;;;;;;;;;;;;;5044935;28;1098;-74
2022/06/24 06:38:06;;;;;;;;;;;;;;;;;;5053243;28;983;-74
2022/06/24 06:40:34;;;;;;;;;;;;;;;;;;5053743;28;1056;-74
2022/06/24 06:43:00;;;;;;;;;;;;;;;;;;5031531;28;1432;-73
2022/06/24 06:45:27;;;;;;;;;;;;;;;;;;5026860;28;1446;-73
2022/06/24 06:47:54;;;;;;;;;;;;;;;;;;5047459;28;1368;-71
2022/06/24 06:50:20;;;;;;;;;;;;;;;;;;5034751;28;1315;-73
2022/06/24 06:52:46;;;;;;;;;;;;;;;;;;5050343;28;1981;-74
2022/06/24 06:55:13;;;;;;;;;;;;;;;;;;5048797;28;1322;-74
2022/06/24 06:57:39;;;;;;;;;;;;;;;;;;5040476;28;1534;-73
2022/06/24 07:00:06;;;;;;;;;;;;;;;;;;5041875;28;1515;-73
2022/06/24 07:02:32;;;;;;;;;;;;;;;;;;5043172;28;1564;-73
2022/06/24 07:05:00;;;;;;;;;;;;;;;;;;5033784;28;1137;-73
2022/06/24 07:07:26;;;;;;;;;;;;;;;;;;5041192;28;1375;-74
2022/06/24 07:09:54;;;;;;;;;;;;;;;;;;5035207;28;1161;-72
2022/06/24 07:12:20;;;;;;;;;;;;;;;;;;5026345;28;1423;-72
2022/06/24 07:14:46;;;;;;;;;;;;;;;;;;5034698;28;1985;-72
2022/06/24 07:17:13;;;;;;;;;;;;;;;;;;5035598;28;1453;-73
2022/06/24 07:19:39;;;;;;;;;;;;;;;;;;5052447;28;1059;-73
2022/06/24 07:22:06;;;;;;;;;;;;;;;;;;5044401;28;1448;-73
2022/06/24 07:24:32;;;;;;;;;;;;;;;;;;5029053;28;1155;-73
2022/06/24 07:26:59;;;;;;;;;;;;;;;;;;5051454;28;1055;-74
2022/06/24 07:29:25;;;;;;;;;;;;;;;;;;5033286;28;1236;-74
2022/06/24 07:31:51;;;;;;;;;;;;;;;;;;5050056;28;1416;-73
2022/06/24 07:34:17;;;;;;;;;;;;;;;;;;5046399;28;1910;-74
2022/06/24 07:36:43;;;;;;;;;;;;;;;;;;5040937;28;965;-74
2022/06/24 07:39:11;;;;;;;;;;;;;;;;;;5033375;28;1240;-74
2022/06/24 07:41:37;;;;;;;;;;;;;;;;;;5046390;28;1064;-74
2022/06/24 07:44:04;;;;;;;;;;;;;;;;;;5033826;28;1382;-74
2022/06/24 07:46:30;;;;;;;;;;;;;;;;;;5047656;28;1538;-74
2022/06/24 07:48:56;;;;;;;;;;;;;;;;;;5043780;28;1379;-74
2022/06/24 07:51:23;;;;;;;;;;;;;;;;;;5027093;28;1314;-75
2022/06/24 07:53:49;;;;;;;;;;;;;;;;;;5050930;28;1914;-74
2022/06/24 07:59:00;;;;;;;;;;;;;;;;;;5033359;28;1233;-73
2022/06/24 08:01:26;;;;;;;;;;;;;;;;;;5045374;28;1512;-76
2022/06/24 08:03:52;;;;;;;;;;;;;;;;;;5047893;28;1392;-74
2022/06/24 08:06:19;;;;;;;;;;;;;;;;;;5038630;28;1190;-75
2022/06/24 08:08:45;;;;;;;;;;;;;;;;;;5033304;28;1220;-75
2022/06/24 08:11:11;;;;;;;;;;;;;;;;;;5050610;28;1350;-75
2022/06/24 08:13:39;;;;;;;;;;;;;;;;;;5026727;28;1923;-75
2022/06/24 08:16:06;;;;;;;;;;;;;;;;;;5024413;28;1229;-75
2022/06/24 08:18:32;;;;;;;;;;;;;;;;;;5050816;28;1219;-75
2022/06/24 08:20:58;;;;;;;;;;;;;;;;;;5035485;28;1352;-75
2022/06/24 08:23:24;;;;;;;;;;;;;;;;;;5039484;28;1513;-75
2022/06/24 08:25:50;;;;;;;;;;;;;;;;;;5042887;28;1863;-75
2022/06/24 08:28:17;;;;;;;;;;;;;;;;;;5041368;28;1505;-72
2022/06/24 08:30:44;;;;;;;;;;;;;;;;;;5016064;28;1293;-74
2022/06/24 08:33:10;;;;;;;;;;;;;;;;;;5043364;28;1540;-73
2022/06/24 08:35:37;;;;;;;;;;;;;;;;;;5044788;28;1916;-75
2022/06/24 08:38:03;;;;;;;;;;;;;;;;;;5032514;28;1146;-74
2022/06/24 08:40:30;;;;;;;;;;;;;;;;;;5037758;28;1511;-74
2022/06/24 08:42:56;;;;;;;;;;;;;;;;;;5040787;28;1421;-74
2022/06/24 08:45:22;;;;;;;;;;;;;;;;;;5047801;28;1428;-74
2022/06/24 08:47:50;;;;;;;;;;;;;;;;;;5041404;28;1209;-74
2022/06/24 08:50:16;;;;;;;;;;;;;;;;;;5047894;28;1353;-74
2022/06/24 08:52:46;;;;;;;;;;;;;;;;;;5046312;28;1844;-75
2022/06/24 08:55:12;;;;;;;;;;;;;;;;;;5029781;28;1940;-74
2022/06/24 08:57:39;;;;;;;;;;;;;;;;;;5046682;28;1445;-75
2022/06/24 09:00:05;;;;;;;;;;;;;;;;;;5047253;28;1377;-75
2022/06/24 09:02:32;;;;;;;;;;;;;;;;;;5043284;28;1419;-75
2022/06/24 09:05:00;;;;;;;;;;;;;;;;;;5047910;28;1217;-74
2022/06/24 09:07:26;;;;;;;;;;;;;;;;;;5047241;28;1300;-75
2022/06/24 09:09:59;;;;;;;;;;;;;;;;;;5048539;28;1412;-74
2022/06/24 09:12:25;;;;;;;;;;;;;;;;;;5041207;28;1509;-75
2022/06/24 09:14:51;;;;;;;;;;;;;;;;;;5045098;28;1985;-75
2022/06/24 09:17:17;;;;;;;;;;;;;;;;;;5037016;28;1456;-73
2022/06/24 09:19:43;;;;;;;;;;;;;;;;;;5045381;28;1390;-75
2022/06/24 09:22:11;;;;;;;;;;;;;;;;;;5044667;28;1338;-74
2022/06/24 09:24:44;;;;;;;;;;;;;;;;;;5029685;28;1068;-74
2022/06/24 09:27:10;;;;;;;;;;;;;;;;;;5028980;28;901;-74
2022/06/24 09:29:37;;;;;;;;;;;;;;;;;;5044233;28;1489;-74
2022/06/24 09:32:04;;;;;;;;;;;;;;;;;;5028189;28;1457;-74
2022/06/24 09:34:30;;;;;;;;;;;;;;;;;;5034981;28;1973;-73
2022/06/24 09:36:56;;;;;;;;;;;;;;;;;;5042045;28;1391;-74
2022/06/24 09:39:24;;;;;;;;;;;;;;;;;;5023374;28;1245;-74
2022/06/24 09:41:51;;;;;;;;;;;;;;;;;;5049495;28;1329;-73
2022/06/24 09:44:17;;;;;;;;;;;;;;;;;;5049687;28;1131;-74
2022/06/24 09:46:44;;;;;;;;;;;;;;;;;;5045064;28;1408;-74
2022/06/24 09:49:11;;;;;;;;;;;;;;;;;;5039731;28;1584;-74
2022/06/24 09:51:39;;;;;;;;;;;;;;;;;;5047290;28;1422;-74
2022/06/24 09:54:05;;;;;;;;;;;;;;;;;;5046443;28;1989;-74
2022/06/24 09:56:32;;;;;;;;;;;;;;;;;;5029681;28;1428;-74
2022/06/24 10:01:43;;;;;;;;;;;;;;;;;;5047539;28;1426;-74
2022/06/24 10:04:10;;;;;;;;;;;;;;;;;;5037438;28;1237;-74
2022/06/24 10:06:37;;;;;;;;;;;;;;;;;;5031366;28;1417;-74
2022/06/24 10:09:04;;;;;;;;;;;;;;;;;;5042271;28;1591;-74
2022/06/24 10:11:30;;;;;;;;;;;;;;;;;;5036286;28;1300;-74
2022/06/24 10:13:57;;;;;;;;;;;;;;;;;;5045353;28;1977;-75
2022/06/24 10:16:23;;;;;;;;;;;;;;;;;;5044599;28;1420;-74
2022/06/24 10:18:50;;;;;;;;;;;;;;;;;;5040577;28;1134;-74
2022/06/24 10:21:16;;;;;;;;;;;;;;;;;;5045306;28;1469;-73
2022/06/24 10:23:43;;;;;;;;;;;;;;;;;;5042320;28;1537;-74
2022/06/24 10:26:10;;;;;;;;;;;;;;;;;;5043781;28;1182;-74
2022/06/24 10:28:52;;;;;;;;;;;;;;;;;;5011143;28;1427;-74
2022/06/24 10:31:19;;;;;;;;;;;;;;;;;;5014065;28;1382;-74
2022/06/24 10:33:45;;;;;;;;;;;;;;;;;;5045818;28;1536;-74
2022/06/24 10:36:12;;;;;;;;;;;;;;;;;;5041970;28;1918;-74
2022/06/24 10:38:39;;;;;;;;;;;;;;;;;;5048185;28;1396;-74
2022/06/24 10:41:06;;;;;;;;;;;;;;;;;;5045869;28;1515;-74
2022/06/24 10:43:33;;;;;;;;;;;;;;;;;;5029754;28;1484;-74
2022/06/24 10:46:09;;;;;;;;;;;;;;;;;;5047893;28;1302;-74
2022/06/24 10:48:56;;;;;;;;;;;;;;;;;;5083360;22;2088;-78
2022/06/24 10:51:23;;;;;;;;;;;;;;;;;;5079534;28;1470;-78
2022/06/24 10:54:09;;;;;;;;;;;;;;;;;;5068789;28;1617;-77
2022/06/24 10:56:40;;;;;;;;;;;;;;;;;;5087290;28;1496;-78
2022/06/24 10:59:06;;;;;;;;;;;;;;;;;;5053198;28;1449;-78
2022/06/24 11:01:32;;;;;;;;;;;;;;;;;;5088706;28;1834;-76
2022/06/24 11:04:00;;;;;;;;;;;;;;;;;;5087071;28;1453;-78
2022/06/24 11:06:26;;;;;;;;;;;;;;;;;;5088253;28;1280;-77
2022/06/24 11:08:52;;;;;;;;;;;;;;;;;;5083617;28;1467;-78
2022/06/24 11:11:27;;;;;;;;;;;;;;;;;;5088791;28;1402;-77
2022/06/24 11:13:53;;;;;;;;;;;;;;;;;;5066555;28;1225;-77
2022/06/24 11:16:19;;;;;;;;;;;;;;;;;;5087490;28;1910;-78
2022/06/24 11:18:49;;;;;;;;;;;;;;;;;;5075676;28;1563;-77
2022/06/24 11:21:18;;;;;;;;;;;;;;;;;;5070333;28;1173;-76
2022/06/24 11:23:46;;;;;;;;;;;;;;;;;;5071115;28;1044;-77
2022/06/24 11:26:13;;;;;;;;;;;;;;;;;;5063035;28;1452;-77
2022/06/24 11:28:40;;;;;;;;;;;;;;;;;;5089723;28;1524;-78
2022/06/24 11:31:17;;;;;;;;;;;;;;;;;;5092768;28;1422;-78
2022/06/24 11:33:43;;;;;;;;;;;;;;;;;;5073981;28;1711;-77
2022/06/24 11:36:09;;;;;;;;;;;;;;;;;;5091211;28;1977;-77
2022/06/24 11:38:48;;;;;;;;;;;;;;;;;;5094160;28;1456;-78
2022/06/24 11:41:21;;;;;;;;;;;;;;;;;;5094289;28;1457;-78
2022/06/24 11:43:48;;;;;;;;;;;;;;;;;;5093011;28;1398;-77
2022/06/24 11:46:15;;;;;;;;;;;;;;;;;;5074573;28;1373;-77
2022/06/24 11:48:41;;;;;;;;;;;;;;;;;;5075236;28;1471;-77
2022/06/24 11:51:07;;;;;;;;;;;;;;;;;;5095013;28;1891;-77
2022/06/24 11:53:33;;;;;;;;;;;;;;;;;;5081471;28;1543;-79
2022/06/24 11:56:01;;;;;;;;;;;;;;;;;;5073421;28;1910;-77
2022/06/24 11:58:27;;;;;;;;;;;;;;;;;;5066190;28;1460;-78
2022/06/24 12:00:54;;;;;;;;;;;;;;;;;;5070426;28;1448;-76
2022/06/24 12:03:21;;;;;;;;;;;;;;;;;;5071691;28;1489;-76
2022/06/24 12:05:47;;;;;;;;;;;;;;;;;;5064740;28;1373;-78
2022/06/24 12:08:13;;;;;;;;;;;;;;;;;;5077686;28;1439;-77
2022/06/24 12:10:48;;;;;;;;;;;;;;;;;;5072055;28;1567;-78
2022/06/24 12:13:24;;;;;;;;;;;;;;;;;;5089867;28;1251;-76
2022/06/24 12:15:54;;;;;;;;;;;;;;;;;;5072259;28;1910;-77
2022/06/24 12:18:22;;;;;;;;;;;;;;;;;;5086933;28;1400;-77
2022/06/24 12:20:55;;;;;;;;;;;;;;;;;;5071488;28;1279;-77
2022/06/24 12:23:22;;;;;;;;;;;;;;;;;;5069538;28;1274;-76
2022/06/24 12:25:49;;;;;;;;;;;;;;;;;;5090295;28;1141;-77
2022/06/24 12:28:20;;;;;;;;;;;;;;;;;;5089653;28;1583;-77
2022/06/24 12:30:56;;;;;;;;;;;;;;;;;;5090630;28;1028;-77
2022/06/24 12:33:23;;;;;;;;;;;;;;;;;;5090732;28;988;-77
2022/06/24 12:35:50;;;;;;;;;;;;;;;;;;5072959;28;1984;-76
2022/06/24 12:38:16;;;;;;;;;;;;;;;;;;5070022;28;1411;-76
2022/06/24 12:40:43;;;;;;;;;;;;;;;;;;5072186;28;1281;-77
2022/06/24 12:43:09;;;;;;;;;;;;;;;;;;5090844;28;921;-77
2022/06/24 12:45:37;;;;;;;;;;;;;;;;;;5072413;28;1131;-77
2022/06/24 12:50:56;;;;;;;;;;;;;;;;;;5088720;28;1409;-76
2022/06/24 12:53:22;;;;;;;;;;;;;;;;;;5072319;28;1280;-76
2022/06/24 12:55:49;;;;;;;;;;;;;;;;;;5072083;28;2257;-75
2022/06/24 12:58:15;;;;;;;;;;;;;;;;;;5089812;28;1325;-77
2022/06/24 13:00:43;;;;;;;;;;;;;;;;;;5089786;28;1616;-78
2022/06/24 13:03:09;;;;;;;;;;;;;;;;;;5072152;28;1253;-77
2022/06/24 13:05:36;;;;;;;;;;;;;;;;;;5089834;28;747;-77
2022/06/24 13:08:02;;;;;;;;;;;;;;;;;;5089327;28;1321;-77
2022/06/24 13:10:29;;;;;;;;;;;;;;;;;;5071616;28;1127;-76
2022/06/24 13:12:55;;;;;;;;;;;;;;;;;;5090433;28;936;-76
2022/06/24 13:15:21;;;;;;;;;;;;;;;;;;5089516;28;1973;-77
2022/06/24 13:17:49;;;;;;;;;;;;;;;;;;5070943;28;1334;-77
2022/06/24 13:20:15;;;;;;;;;;;;;;;;;;5072270;28;1129;-78
2022/06/24 13:22:42;;;;;;;;;;;;;;;;;;5089878;28;961;-78
2022/06/24 13:25:09;;;;;;;;;;;;;;;;;;5071599;28;1294;-80
2022/06/24 13:27:35;;;;;;;;;;;;;;;;;;5070767;28;1417;-77
2022/06/24 13:30:03;;;;;;;;;;;;;;;;;;5071997;28;1241;-78
2022/06/24 13:32:29;;;;;;;;;;;;;;;;;;5089016;28;1354;-78
2022/06/24 13:34:57;;;;;;;;;;;;;;;;;;5076681;28;1973;-78
2022/06/24 13:37:23;;;;;;;;;;;;;;;;;;5090777;28;1396;-78
2022/06/24 13:39:50;;;;;;;;;;;;;;;;;;5093105;28;1153;-78
2022/06/24 13:42:16;;;;;;;;;;;;;;;;;;5052821;28;1310;-79
2022/06/24 13:44:42;;;;;;;;;;;;;;;;;;5070595;28;1197;-79
2022/06/24 13:47:09;;;;;;;;;;;;;;;;;;5057354;28;1620;-78
2022/06/24 13:49:35;;;;;;;;;;;;;;;;;;5063608;28;1383;-79
2022/06/24 13:52:03;;;;;;;;;;;;;;;;;;5070765;28;1161;-78
2022/06/24 13:54:30;;;;;;;;;;;;;;;;;;5072106;28;1505;-79
2022/06/24 13:56:57;;;;;;;;;;;;;;;;;;5089412;28;2031;-79
2022/06/24 13:59:23;;;;;;;;;;;;;;;;;;5065476;28;1385;-78
2022/06/24 14:01:49;;;;;;;;;;;;;;;;;;5086454;28;1204;-78
2022/06/24 14:04:15;;;;;;;;;;;;;;;;;;5089964;28;984;-78
2022/06/24 14:06:41;;;;;;;;;;;;;;;;;;5087164;28;1545;-77
2022/06/24 14:09:09;;;;;;;;;;;;;;;;;;5081430;28;1373;-79
2022/06/24 14:11:35;;;;;;;;;;;;;;;;;;5083643;28;1145;-79
2022/06/24 14:14:01;;;;;;;;;;;;;;;;;;5070906;28;1574;-78
2022/06/24 14:16:27;;;;;;;;;;;;;;;;;;5089200;28;1973;-79
2022/06/24 14:18:54;;;;;;;;;;;;;;;;;;5088062;28;1417;-78
2022/06/24 14:21:20;;;;;;;;;;;;;;;;;;5083119;28;1294;-78
2022/06/24 14:26:31;;;;;;;;;;;;;;;;;;5074340;28;1218;-78
2022/06/24 14:28:58;;;;;;;;;;;;;;;;;;5065608;28;2187;-79
2022/06/24 14:31:24;;;;;;;;;;;;;;;;;;5076618;28;1406;-78
2022/06/24 14:33:50;;;;;;;;;;;;;;;;;;5064979;28;1488;-78
2022/06/24 14:36:16;;;;;;;;;;;;;;;;;;5084424;28;1922;-78
2022/06/24 14:41:26;;;;;;;;;;;;;;;;;;5079144;28;1390;-79
2022/06/24 14:43:54;;;;;;;;;;;;;;;;;;5070140;28;1242;-78
2022/06/24 14:46:20;;;;;;;;;;;;;;;;;;5088365;28;1403;-77
2022/06/24 14:48:46;;;;;;;;;;;;;;;;;;5090152;28;1479;-78
2022/06/24 14:51:13;;;;;;;;;;;;;;;;;;5090394;28;1387;-77
2022/06/24 14:53:39;;;;;;;;;;;;;;;;;;5090244;28;1189;-77
2022/06/24 14:56:05;;;;;;;;;;;;;;;;;;5092315;28;1910;-78
2022/06/24 14:58:31;;;;;;;;;;;;;;;;;;5092926;28;1286;-77
2022/06/24 15:00:59;;;;;;;;;;;;;;;;;;5091672;28;1374;-77
2022/06/24 15:03:25;;;;;;;;;;;;;;;;;;5087044;28;1350;-77
2022/06/24 15:05:52;;;;;;;;;;;;;;;;;;5092488;28;1283;-76
2022/06/24 15:08:18;;;;;;;;;;;;;;;;;;5092646;28;1347;-76
2022/06/24 15:10:44;;;;;;;;;;;;;;;;;;5091567;28;1311;-77
2022/06/24 15:13:11;;;;;;;;;;;;;;;;;;5091473;28;1373;-76
2022/06/24 15:15:37;;;;;;;;;;;;;;;;;;5077233;28;1967;-77
2022/06/24 15:18:05;;;;;;;;;;;;;;;;;;5083535;28;1516;-77
2022/06/24 15:20:31;;;;;;;;;;;;;;;;;;5088062;28;1353;-77
2022/06/24 15:22:57;;;;;;;;;;;;;;;;;;5090715;28;1276;-77
2022/06/24 15:25:24;;;;;;;;;;;;;;;;;;5092042;28;957;-77
2022/06/24 15:27:50;;;;;;;;;;;;;;;;;;5091424;28;1408;-76
2022/06/24 15:30:16;;;;;;;;;;;;;;;;;;5092366;28;779;-76
2022/06/24 15:32:42;;;;;;;;;;;;;;;;;;5089904;28;1389;-76
2022/06/24 15:35:10;;;;;;;;;;;;;;;;;;5092428;28;1228;-76
2022/06/24 15:37:36;;;;;;;;;;;;;;;;;;5091304;28;1975;-75
2022/06/24 15:40:02;;;;;;;;;;;;;;;;;;5091820;28;1071;-77
2022/06/24 15:42:28;;;;;;;;;;;;;;;;;;5090201;28;1346;-76
2022/06/24 15:44:55;;;;;;;;;;;;;;;;;;5089812;28;1373;-75
2022/06/24 15:47:22;;;;;;;;;;;;;;;;;;5070315;28;1502;-76
2022/06/24 15:49:48;;;;;;;;;;;;;;;;;;5088968;28;1290;-76
2022/06/24 15:52:16;;;;;;;;;;;;;;;;;;5086879;28;1329;-77
2022/06/24 15:54:43;;;;;;;;;;;;;;;;;;5089779;28;1352;-77
2022/06/24 15:57:09;;;;;;;;;;;;;;;;;;5082063;28;1913;-76
2022/06/24 15:59:36;;;;;;;;;;;;;;;;;;5092713;28;913;-76
2022/06/24 16:02:02;;;;;;;;;;;;;;;;;;5092060;28;1161;-77
2022/06/24 16:04:28;;;;;;;;;;;;;;;;;;5090890;28;1415;-77
2022/06/24 16:06:55;;;;;;;;;;;;;;;;;;5091498;28;1416;-76
2022/06/24 16:09:23;;;;;;;;;;;;;;;;;;5078598;28;1321;-78
2022/06/24 16:14:33;;;;;;;;;;;;;;;;;;5076734;28;1382;-77
2022/06/24 16:16:59;;;;;;;;;;;;;;;;;;5083568;28;1983;-78
2022/06/24 16:19:25;;;;;;;;;;;;;;;;;;5087995;28;1413;-77
2022/06/24 16:21:51;;;;;;;;;;;;;;;;;;5089721;28;1521;-78
2022/06/24 16:24:17;;;;;;;;;;;;;;;;;;5088562;28;1122;-78
2022/06/24 16:29:29;;;;;;;;;;;;;;;;;;5090998;28;1370;-77
2022/06/24 16:31:55;;;;;;;;;;;;;;;;;;5089923;28;1350;-77
2022/06/24 16:34:21;;;;;;;;;;;;;;;;;;5089721;28;1522;-77
2022/06/24 16:36:48;;;;;;;;;;;;;;;;;;5089335;28;1967;-77
2022/06/24 16:39:14;;;;;;;;;;;;;;;;;;5083935;28;1375;-77
2022/06/24 16:41:40;;;;;;;;;;;;;;;;;;5092294;28;749;-76
2022/06/24 16:44:09;;;;;;;;;;;;;;;;;;5089290;28;1409;-77
2022/06/24 16:46:35;;;;;;;;;;;;;;;;;;5088864;28;1477;-78
2022/06/24 16:49:01;;;;;;;;;;;;;;;;;;5091246;28;1493;-77
2022/06/24 16:51:27;;;;;;;;;;;;;;;;;;5091727;22;2011;-76
2022/06/24 16:53:53;;;;;;;;;;;;;;;;;;5048974;28;1397;-73
2022/06/24 16:56:20;;;;;;;;;;;;;;;;;;5042501;28;1987;-73
2022/06/24 16:58:46;;;;;;;;;;;;;;;;;;5043617;28;1217;-74
2022/06/24 17:01:14;;;;;;;;;;;;;;;;;;5033047;28;1455;-74
2022/06/24 17:03:40;;;;;;;;;;;;;;;;;;5049798;28;1450;-74
2022/06/24 17:06:07;;;;;;;;;;;;;;;;;;5049887;28;1343;-74
2022/06/24 17:08:33;;;;;;;;;;;;;;;;;;5050792;28;1088;-74
2022/06/24 17:11:00;;;;;;;;;;;;;;;;;;5025383;28;1503;-73
2022/06/24 17:13:27;;;;;;;;;;;;;;;;;;4950922;28;1135;-73
2022/06/24 17:15:54;;;;;;;;;;;;;;;;;;5022254;28;1401;-75
2022/06/24 17:18:22;;;;;;;;;;;;;;;;;;4999447;28;2003;-74
2022/06/24 17:20:48;;;;;;;;;;;;;;;;;;4988510;28;1670;-74
2022/06/24 17:23:15;;;;;;;;;;;;;;;;;;4977253;28;866;-72
2022/06/24 17:25:41;;;;;;;;;;;;;;;;;;4978725;28;1106;-74
2022/06/24 17:28:08;;;;;;;;;;;;;;;;;;4981750;28;882;-75
2022/06/24 17:30:35;;;;;;;;;;;;;;;;;;4954413;28;1104;-74
2022/06/24 17:33:01;;;;;;;;;;;;;;;;;;4987436;28;1353;-73